x

New Dungeness - 17 Nm Ne Of Port Angeles, Wa (46088) Wave Buoy

8:20am - Tue 26th May 2015 All times are PDT. -7 hours from GMT.

  • Sig Wave height 1.0ft
  • Swell Direction
  • Peak Period 3s
  • Average Period 3s
  • Wind
    4mph, 7mph gusts
  • Sea Temp 50°f
  • Air Temp 51°f
  • Sea Pressure 1017.9mb
  • New Dungeness - 17 Nm Ne Of Port Angeles, Wa
  • New Dungeness - 17 Nm Ne Of Port Angeles, Wa

More Historic Weather Station data

Upgrade to MSW Pro to gain access to the past 30 days of data for over 8000 Wavebouys and Weather Stations around the globe.

Join Pro

Comparision Forecast

View Surf forecast
   
Tue 05/26 8:20am 1ft 3s 3s 4 7 mph 1017.9mb 50f 51f
7:50am 1ft 3s 3s 7 9 mph 1017.7mb 50f 51f
7:20am 1ft 4s 3s 7 9 mph 1017.5mb 50f 51f
6:50am 1ft 4s 3s 9 11 mph 1017.3mb 50f 51f
6:20am 0.7ft  -  3s 11 13 mph 1017.3mb 50f 51f
5:50am 0.7ft  -  4s 7 9 mph 1017.1mb 50f 51f
5:20am 0.7ft  -  4s 9 11 mph 1017mb 50f 51f
4:50am 1ft 4s 3s 9 11 mph 1016.8mb 50f 51f
4:20am 1ft 3s 3s 11 13 mph 1016.8mb 50f 51f
3:50am 1ft 3s 3s 9 13 mph 1016.8mb 50f 51f
3:20am 1ft 3s 3s 11 13 mph 1016.4mb 50f 52f
2:50am 0.7ft  -  3s 11
mph
1016.7mb 50f 52f
2:20am 1ft 4s 3s 11 13 mph 1016.6mb 50f 52f
1:50am 0.7ft  -  3s 11 13 mph 1016.6mb 50f 52f
1:20am 0.7ft  -  3s 13
mph
1016.4mb 50f 51f
12:50am 0.7ft  -  3s 11 13 mph 1016.2mb 50f 51f
12:20am 1ft 2s 3s 11 13 mph 1016.3mb 50f 51f
Mon 05/25 11:50pm 0.7ft  -  3s 11 13 mph 1016.3mb 50f 51f
11:20pm 0.7ft  -  3s 11 13 mph 1016.3mb 50f 51f
10:50pm 0.7ft  -  3s 11 16 mph 1016.3mb 51f 51f
10:20pm 0.3ft  -  3s 9 11 mph 1016.4mb 51f 51f
9:50pm 0.3ft  -  3s 9 11 mph 1016.4mb 52f 51f
9:20pm 0.3ft  -  4s 7 9 mph 1016.1mb 52f 52f
8:50pm 0.3ft  -  4s 2 4 mph 1016mb 52f 52f
8:20pm 0.3ft  -  4s 4 7 mph 1015.9mb 52f 52f
7:50pm 0.7ft  -  5s 7 9 mph 1016mb 52f 53f
7:20pm 1ft 7s 5s 2 4 mph 1015.9mb 53f 54f
6:50pm 0.7ft  -  5s 2
mph
1016.1mb 53f 54f
6:20pm 0.7ft  -  5s 2 4 mph 1016.1mb 52f 54f
5:50pm 0.7ft  -  5s 2
mph
1016.1mb 53f 54f
5:20pm 0.7ft  -  5s  -  2 mph 1016.1mb 52f 55f
4:50pm 0.7ft  -  5s  -  mph 1016.4mb 52f 58f
4:20pm 0.7ft  -  5s 2
mph
1016.5mb 53f 55f
3:50pm 0.7ft  -  5s  -  2 mph 1016.5mb 52f 54f
3:20pm 0.7ft  -  5s 2
mph
1016.5mb 53f 53f
2:50pm 0.7ft  -  4s 2
mph
1016.9mb 53f 54f
2:20pm 0.7ft  -  4s  -  2 mph 1016.9mb 52f 54f
1:50pm 0.7ft  -  4s 4
mph
1016.8mb 52f 53f
1:20pm 0.7ft  -  4s 2 4 mph 1016.9mb 51f 52f
12:50pm 0.7ft  -  4s 4
mph
1016.9mb 51f 52f
12:20pm 0.7ft  -  4s 4 7 mph 1016.8mb 50f 51f
11:50am 1ft 3s 3s 4 7 mph 1016.6mb 50f 51f
11:20am 1ft 3s 3s 7 9 mph 1016.5mb 50f 51f
10:50am 1ft 3s 3s 9 11 mph 1016.3mb 50f 51f
10:20am 1.3ft 3s 3s 9 11 mph 1016.1mb 50f 51f
9:50am 1.3ft 3s 3s 11 16 mph 1015.8mb 50f 50f
9:20am 1.3ft 3s 3s 13 16 mph 1015.8mb 50f 50f
8:50am 1.3ft 3s 3s 13 16 mph 1015.7mb 50f 50f
8:20am 1.3ft 3s 3s 11 13 mph 1015.8mb 49f 50f
7:50am 1.3ft 3s 3s 11 13 mph 1015.7mb 49f 50f
7:20am 1.3ft 4s 3s 11 13 mph 1015.5mb 49f 50f
6:50am 1.3ft 4s 3s 13 16 mph 1015.4mb 49f 50f
6:20am 1.3ft 4s 3s 13 16 mph 1015.3mb 49f 50f
5:50am 1.3ft 4s 4s 13 16 mph 1015.1mb 49f 50f
5:20am 1.3ft 4s 4s 13 16 mph 1015.4mb 49f 50f
4:50am 1.6ft 4s 4s 13 16 mph 1015.6mb 50f 50f
4:20am 1.6ft 4s 4s 16 20 mph 1015.5mb 50f 50f
3:50am 2ft 4s 4s 16 18 mph 1015.6mb 50f 50f
3:20am 2ft 4s 4s 16 20 mph 1015.5mb 50f 50f
2:50am 2ft 4s 4s 16 20 mph 1015.6mb 50f 50f
2:20am 1.6ft 4s 3s 18 22 mph 1015.5mb 50f 50f
1:50am 1.6ft 4s 3s 18 20 mph 1015.5mb 50f 50f
1:20am 1.6ft 3s 3s 18 20 mph 1015.6mb 50f 50f
12:50am 1.6ft 3s 3s 18 22 mph 1015.7mb 50f 50f
12:20am 1.6ft 3s 3s 18 20 mph 1015.8mb 50f 50f
Sun 05/24 11:50pm 1.3ft 3s 3s 18 20 mph 1015.8mb 50f 51f
11:20pm 1.3ft 3s 3s 16 20 mph 1015.9mb 50f 51f
10:50pm 1.3ft 3s 3s 16 20 mph 1015.7mb 50f 51f
10:20pm 1ft 3s 3s 13 18 mph 1015.9mb 51f 51f
9:50pm 1.3ft 3s 3s 13 16 mph 1016.1mb 51f 51f
9:20pm 1.3ft 3s 3s 13 16 mph 1015.8mb 51f 51f
8:50pm 1.6ft 3s 3s 13 16 mph 1015.9mb 51f 51f
8:20pm 1.3ft 3s 3s 13 16 mph 1016mb 51f 51f
7:50pm 1.6ft 3s 3s 13 16 mph 1016.2mb 51f 51f
7:20pm 1.6ft 3s 3s 13 16 mph 1016.4mb 51f 52f
6:50pm 1.6ft 3s 3s 11 13 mph 1016.5mb 52f 52f
6:20pm 1.3ft 4s 3s 13 16 mph 1016.6mb 51f 52f
5:50pm 1.3ft 4s 3s 13 16 mph 1017mb 51f 52f
5:20pm 1.3ft 4s 4s 9 11 mph 1017.4mb 51f 52f
4:50pm 1.3ft 7s 4s 9 11 mph 1017.7mb 50f 52f
4:20pm 1.3ft 4s 4s 9 11 mph 1017.9mb 50f 52f
3:50pm 1.3ft 3s 3s 9 11 mph 1018.2mb 50f 52f
3:20pm 1.3ft 3s 3s 11 13 mph 1018.4mb 50f 52f
2:50pm 1.3ft 4s 3s 13 18 mph 1018.6mb 50f 52f
2:20pm 1ft 4s 4s 13
mph
1018.9mb 50f 51f
1:50pm 1ft 4s 4s 11 13 mph 1019.3mb 51f 51f
1:20pm 1ft 4s 3s 11 13 mph 1019.5mb 50f 51f
12:50pm 1.3ft 4s 4s 11
mph
1019.5mb 50f 51f
12:20pm 1.3ft 4s 4s 11
mph
1019.8mb 50f 51f
11:50am 1.3ft 4s 3s 9 11 mph 1019.8mb 50f 51f
11:20am 1.3ft 4s 3s 13
mph
1019.9mb 50f 51f
10:50am 1.6ft 3s 3s 13
mph
1019.9mb 50f 51f
10:20am 1.6ft 4s 3s 13 16 mph 1020.3mb 50f 50f
9:50am 1.6ft 4s 3s 13 18 mph 1020.4mb 50f 50f
9:20am 1.6ft 4s 3s 16 18 mph 1020.4mb 50f 50f
8:50am 1.6ft 4s 3s 16 20 mph 1020.4mb 50f 50f
8:20am 2ft 4s 3s 18 20 mph 1020.4mb 50f 50f
7:50am 2.5ft 4s 3s 18 20 mph 1020.5mb 50f 50f
7:20am 2.5ft 4s 4s 20 22 mph 1020.5mb 50f 50f
6:50am 2.5ft 4s 4s 20 25 mph 1020.5mb 49f 50f
6:20am 2.5ft 4s 4s 20 25 mph 1020.3mb 49f 50f
5:50am 2ft 4s 4s 20 25 mph 1020.2mb 49f 50f
5:20am 2ft 4s 4s 18 22 mph 1020.3mb 49f 50f
4:50am 1.6ft 5s 4s 18 22 mph 1020.5mb 50f 50f
4:20am 1.6ft 4s 4s 18 20 mph 1020.8mb 50f 50f
3:50am 1.6ft 4s 4s 16 20 mph 1021mb 50f 50f
3:20am 2ft 4s 4s 18 20 mph 1021.1mb 50f 51f
2:50am 1.6ft 4s 4s 18 22 mph 1021.2mb 50f 51f
2:20am 2ft 4s 4s 18 20 mph 1021.1mb 50f 51f
1:50am 2ft 4s 3s 18 20 mph 1021.2mb 50f 50f
1:20am 1.6ft 4s 3s 18 20 mph 1021.3mb 50f 51f
12:50am 1.6ft 3s 3s 16 20 mph 1021.6mb 50f 51f
12:20am 1.6ft 4s 3s 18 20 mph 1021.5mb 50f 51f
Sat 05/23 11:50pm 1.6ft 3s 3s 18 22 mph 1021.5mb 50f 51f
11:20pm 1.3ft 3s 3s 16 18 mph 1021.2mb 50f 51f
10:50pm 1.6ft 3s 3s 13 18 mph 1021mb 50f 51f
10:20pm 1.3ft 3s 3s 16 18 mph 1020.9mb 50f 51f
9:50pm 1.3ft 3s 3s 16 18 mph 1020.9mb 50f 51f
9:20pm 1.3ft 3s 3s 18 20 mph 1020.9mb 50f 51f
8:50pm 1.3ft 3s 3s 18 20 mph 1021mb 50f 51f
8:20pm 1ft 2s 3s 16 20 mph 1021.1mb 50f 51f
7:50pm 1ft 2s 3s 16
mph
1021.3mb 51f 51f
7:20pm 1.3ft 3s 3s 13 16 mph 1021.1mb 51f 51f
6:50pm 1.3ft 3s 3s 13 16 mph 1020.9mb 51f 52f
6:20pm 1.6ft 3s 3s 11 16 mph 1021mb 51f 52f
5:50pm 1ft 3s 3s 11 13 mph 1021.2mb 51f 52f
5:20pm 1ft 3s 3s 11 13 mph 1021.4mb 51f 52f
4:50pm 1ft 3s 3s 9 13 mph 1021.7mb 51f 53f
4:20pm 0.7ft  -  4s 11 13 mph 1021.6mb 51f 53f
3:50pm 0.7ft  -  4s 9
mph
1022.1mb 51f 52f
3:20pm 0.7ft  -  4s 7
mph
1022.3mb 51f 52f
2:50pm 0.7ft  -  3s 7 9 mph 1022.7mb 51f 52f
2:20pm 0.7ft  -  4s 7 9 mph 1022.6mb 51f 52f
1:50pm 0.7ft  -  4s 7
mph
1022.4mb 51f 52f
1:20pm 0.7ft  -  4s 7
mph
1022.2mb 51f 53f
12:50pm 0.7ft  -  4s 7
mph
1022.4mb 51f 53f
12:20pm 0.7ft  -  4s 7 9 mph 1022.4mb 50f 52f
11:50am 0.7ft  -  3s 9 11 mph 1022mb 50f 52f
11:20am 0.7ft  -  3s 11
mph
1021.7mb 50f 51f
10:50am 0.7ft  -  3s 9 11 mph 1021.6mb 50f 51f
10:20am 0.7ft  -  3s 11 13 mph 1021.5mb 50f 51f
9:50am 1ft 5s 3s 9 11 mph 1021.4mb 50f 51f
9:20am 0.7ft  -  3s 9 11 mph 1021.1mb 50f 51f
8:50am 0.7ft  -  3s 9
mph
1020.8mb 50f 51f
8:20am 1ft 3s 3s 9 11 mph 1020.7mb 50f 50f
7:50am 1ft 3s 3s 9 11 mph 1020.5mb 50f 51f
7:20am 1ft 3s 3s 9 11 mph 1020.4mb 50f 51f
6:50am 1ft 3s 3s 9 11 mph 1020.2mb 50f 51f
6:20am 1ft 3s 3s 11
mph
1020mb 50f 51f
5:50am 1ft 3s 3s 11 13 mph 1019.7mb 50f 51f
5:20am 0.7ft  -  3s 11 13 mph 1019.5mb 50f 51f
4:50am 0.7ft  -  3s 11 13 mph 1019.4mb 50f 51f
4:20am 1ft 3s 3s 11 13 mph 1019.4mb 49f 51f
3:50am 1ft 3s 3s 9 11 mph 1019.2mb 49f 51f
3:20am 0.7ft  -  3s 11
mph
1019mb 50f 51f
2:50am 1ft 4s 4s 9 11 mph 1018.9mb 49f 51f
2:20am 1ft 3s 4s 9 13 mph 1018.7mb 49f 51f
1:50am 1ft 4s 4s 11 13 mph 1018.4mb 49f 51f
1:20am 1ft 3s 3s 11 13 mph 1018.4mb 49f 51f
12:50am 1.3ft 8s 4s 13 16 mph 1018.1mb 49f 51f
12:20am 1ft 3s 4s 13 16 mph 1017.8mb 49f 51f
Fri 05/22 11:50pm 1ft 2s 3s 13 16 mph 1017.6mb 49f 51f
11:20pm 1ft 5s 3s 11 13 mph 1017.5mb 49f 51f
10:50pm 1ft 3s 3s 13
mph
1017.4mb 49f 51f
10:20pm 1ft 8s  -  13 16 mph 1016.8mb 49f 51f
9:50pm 1ft 2s 3s 13 16 mph 1016.6mb 49f 51f
9:20pm 1ft 2s 3s 16
mph
1016.4mb 50f 51f
8:50pm 1ft 2s 3s 13 16 mph 1016.1mb 50f 52f
8:20pm 1ft 8s 3s 16 20 mph 1015.6mb 50f 52f
7:50pm 1ft 3s 3s 16 18 mph 1015.6mb 50f 52f
7:20pm 1.3ft 4s 3s 11 16 mph 1015.8mb 50f 52f
6:50pm 1.3ft 3s 3s 13 16 mph 1015.6mb 50f 52f
6:20pm 1.3ft 3s 3s 13 18 mph 1015.5mb 50f 52f
5:50pm 1.6ft 3s 3s 11 13 mph 1015.7mb 50f 52f
5:20pm 2ft 3s 3s 13 16 mph 1015.6mb 50f 52f
4:50pm 1.6ft 4s 3s 13 16 mph 1015.5mb 50f 52f